This is the latest recevied weather packets stored in our database for station/object M0TJX-1. If no packets are shown the sender has not sent any weather packets the latest 10 day(s).
| Time | Temp. | Humidity | Pressure | Rain* | Wind** | Luminosity | Snow |
|---|---|---|---|---|---|---|---|
| 1777714100 | 16.11° C | 75% | 1017.1 hPa | 0 mm | - | - | - |
| 1777713200 | 15° C | 76% | 1017.3 hPa | 0 mm | - | - | - |
| 1777712300 | 15° C | 76% | 1017.5 hPa | 0 mm | - | - | - |
| 1777711400 | 15° C | 77% | 1017.7 hPa | 0 mm | - | - | - |
| 1777710500 | 13.89° C | 82% | 1017.6 hPa | 0 mm | - | - | - |
| 1777709601 | 12.22° C | 87% | 1017.8 hPa | 0 mm | - | - | - |
| 1777708700 | 11.11° C | 90% | 1017.9 hPa | 0 mm | - | - | - |
| 1777707801 | 11.11° C | 92% | 1017.8 hPa | 0 mm | - | - | - |
| 1777706901 | 10.56° C | 93% | 1017.9 hPa | 0 mm | - | - | - |
| 1777706001 | 10.56° C | 95% | 1017.9 hPa | 0 mm | - | - | - |
| 1777705101 | 10° C | 95% | 1017.8 hPa | 0 mm | - | - | - |
| 1777704201 | 9.44° C | 95% | 1017.9 hPa | 0 mm | - | - | - |
| 1777703301 | 9.44° C | 95% | 1017.8 hPa | 0 mm | - | - | - |
| 1777702401 | 8.89° C | 95% | 1017.9 hPa | 0 mm | - | - | - |
| 1777701501 | 8.89° C | 95% | 1018 hPa | 0 mm | - | - | - |
| 1777700601 | 8.33° C | 95% | 1017.9 hPa | 0 mm | - | - | - |
| 1777699701 | 8.33° C | 95% | 1017.8 hPa | 0 mm | - | - | - |
| 1777698801 | 7.78° C | 94% | 1017.7 hPa | 0 mm | - | - | - |
| 1777697901 | 7.78° C | 94% | 1017.8 hPa | 0 mm | - | - | - |
| 1777697001 | 7.78° C | 94% | 1017.8 hPa | 0 mm | - | - | - |
| 1777696101 | 7.78° C | 93% | 1017.8 hPa | 0 mm | - | - | - |
| 1777695201 | 7.78° C | 93% | 1017.8 hPa | 0 mm | - | - | - |
| 1777694301 | 7.78° C | 93% | 1018.3 hPa | 0 mm | - | - | - |
| 1777693401 | 7.78° C | 93% | 1018.4 hPa | 0 mm | - | - | - |
| 1777692501 | 7.78° C | 92% | 1018.3 hPa | 0 mm | - | - | - |
* Rain latest hour (hover to see other rain measurements)
** Current wind speed in m/s (hover to see current wind gust speed)